^^
Meteo Knjazevac Station Historical Data
Daily Summary for September 27, 2021 Units:  Metric    English   Both
Daily Weekly Monthly Yearly Custom
  High: Low: Average:
Temperature: 12.9 °C 10.4 °C 11.4 °C
Dew Point: 9.3 °C 8.3 °C 8.8 °C
Humidity: 89% 79% 84%
Wind Speed: 1.6km/h 0km/h 1km/h
Wind Gust: 9.7km/h - -
Wind- - WSW
Pressure: 1021.2 hPa 1020.9 hPa -
Precipitation: 0 mm    
Historical Graphs
 
 
Tabular Data for September 27, 2021
Time Temperature Dew Point Pressure Wind Wind Speed Wind Gust Humidity Rainfall Rate (Hourly) solar Conditions
00:00 12.9 °C 9.3 °C 1021.2 hPa WNW 1.6 km/h 3.2 km/h 79% 0 mm 0 W/m2
00:10 12.7 °C 9.2 °C 1020.9 hPa Calm   3.2 km/h 79% 0 mm 0 W/m2
00:20 12.6 °C 9.2 °C 1020.9 hPa Calm     80% 0 mm 0 W/m2
00:30 12.4 °C 9.1 °C 1020.9 hPa NW 1.6 km/h 3.2 km/h 80% 0 mm 0 W/m2
00:40 12.3 °C 8.9 °C 1020.9 hPa Calm   3.2 km/h 80% 0 mm 0 W/m2
00:50 12.1 °C 8.9 °C 1021.2 hPa Calm   3.2 km/h 81% 0 mm 0 W/m2
01:00 12 °C 8.8 °C 1021.2 hPa Calm   1.6 km/h 81% 0 mm 0 W/m2
01:10 11.8 °C 8.7 °C 1021.2 hPa NNW 1.6 km/h 4.8 km/h 81% 0 mm 0 W/m2
01:20 11.7 °C 8.9 °C 1021.2 hPa WNW 1.6 km/h 4.8 km/h 83% 0 mm 0 W/m2
01:30 11.7 °C 9.1 °C 1020.9 hPa WNW 1.6 km/h 4.8 km/h 84% 0 mm 0 W/m2
01:40 11.6 °C 9 °C 1020.9 hPa Calm   4.8 km/h 84% 0 mm 0 W/m2
01:50 11.5 °C 8.7 °C 1020.9 hPa WNW 1.6 km/h 3.2 km/h 83% 0 mm 0 W/m2
02:00 11.3 °C 8.6 °C 1020.9 hPa Calm   3.2 km/h 83% 0 mm 0 W/m2
02:10 11.3 °C 8.7 °C 1020.9 hPa West 1.6 km/h 3.2 km/h 84% 0 mm 0 W/m2
02:20 11.1 °C 8.5 °C 1020.9 hPa NW 1.6 km/h 4.8 km/h 84% 0 mm 0 W/m2
02:30 10.9 °C 8.3 °C 1020.9 hPa Calm   3.2 km/h 84% 0 mm 0 W/m2
02:40 10.8 °C 8.4 °C 1020.9 hPa Calm   3.2 km/h 85% 0 mm 0 W/m2
02:50 10.8 °C 8.5 °C 1021.2 hPa NNW 1.6 km/h 3.2 km/h 86% 0 mm 0 W/m2
03:00 10.6 °C 8.3 °C 1021.2 hPa WNW 1.6 km/h 3.2 km/h 86% 0 mm 0 W/m2
03:10 10.7 °C 8.8 °C 1021.2 hPa SSW 1.6 km/h 3.2 km/h 88% 0 mm 0 W/m2
03:20 10.6 °C 8.7 °C 1020.9 hPa North 1.6 km/h 3.2 km/h 88% 0 mm 0 W/m2
03:30 10.7 °C 8.9 °C 1020.9 hPa Calm   3.2 km/h 89% 0 mm 0 W/m2
03:40 10.6 °C 8.7 °C 1020.9 hPa NNW 1.6 km/h 3.2 km/h 88% 0 mm 0 W/m2
03:50 10.4 °C 8.5 °C 1020.9 hPa Calm   3.2 km/h 88% 0 mm 0 W/m2
04:00 10.4 °C 8.5 °C 1020.9 hPa NE 1.6 km/h 9.7 km/h 88% 0 mm 0 W/m2
Knjazevac, Serbia
Compliments of Weather Underground - 2 mb